createdAt,value
2018-05-02T01:01:45.200Z,1.90
2018-05-02T01:04:12.715Z,2.00
2018-05-02T01:06:40.570Z,1.97
2018-05-02T01:09:08.136Z,2.10
2018-05-02T01:11:36.626Z,2.97
2018-05-02T01:14:04.392Z,1.93
2018-05-02T01:16:32.229Z,2.00
2018-05-02T01:19:00.685Z,2.60
2018-05-02T01:21:28.376Z,1.93
2018-05-02T01:23:55.862Z,1.70
2018-05-02T01:26:24.165Z,1.70
2018-05-02T01:28:51.862Z,1.73
2018-05-02T01:31:20.392Z,2.07
2018-05-02T01:33:48.650Z,1.80
2018-05-02T01:36:16.288Z,1.70
2018-05-02T01:38:44.266Z,1.40
2018-05-02T01:41:11.913Z,1.70
2018-05-02T01:43:40.555Z,1.70
2018-05-02T01:46:08.816Z,1.80
2018-05-02T01:48:36.291Z,1.53
2018-05-02T01:51:03.807Z,1.80
2018-05-02T01:53:31.503Z,1.70
2018-05-02T01:56:00.289Z,1.83
2018-05-02T01:58:28.264Z,1.70
2018-05-02T02:00:56.710Z,1.93
2018-05-02T02:03:24.375Z,2.30
2018-05-02T02:05:53.378Z,1.90
2018-05-02T02:08:22.135Z,2.47
2018-05-02T02:10:49.640Z,1.70
2018-05-02T02:13:17.124Z,1.73
2018-05-02T02:15:44.698Z,1.80
2018-05-02T02:18:12.182Z,2.57
2018-05-02T02:20:39.667Z,1.70
2018-05-02T02:23:07.916Z,1.50
2018-05-02T02:25:35.916Z,1.90
2018-05-02T02:28:03.398Z,2.60
2018-05-02T02:30:30.890Z,1.60
2018-05-02T02:32:58.941Z,1.60
2018-05-02T02:35:26.413Z,2.60
2018-05-02T02:37:53.904Z,1.93
2018-05-02T02:40:22.505Z,1.90
2018-05-02T02:42:49.987Z,1.80
2018-05-02T02:45:17.825Z,2.70
2018-05-02T02:47:45.308Z,1.90
2018-05-02T02:50:12.893Z,2.70
2018-05-02T02:52:40.377Z,1.80
2018-05-02T02:55:08.081Z,1.60
2018-05-02T02:57:36.121Z,1.70
2018-05-02T03:00:03.884Z,1.90
2018-05-02T03:02:32.282Z,2.87
2018-05-02T03:04:59.961Z,1.77
2018-05-02T03:07:27.599Z,1.83
2018-05-02T03:09:56.013Z,1.90
2018-05-02T03:12:23.494Z,1.87
2018-05-02T03:14:50.984Z,2.60
2018-05-02T03:17:18.679Z,1.80
2018-05-02T03:19:46.253Z,1.83
2018-05-02T03:22:13.796Z,1.70
2018-05-02T03:24:41.624Z,1.80
2018-05-02T03:27:09.195Z,1.80
2018-05-02T03:29:36.614Z,1.70
2018-05-02T03:32:04.316Z,1.90
2018-05-02T03:34:32.569Z,3.13
2018-05-02T03:37:00.590Z,1.97
2018-05-02T03:39:29.036Z,2.00
2018-05-02T03:41:57.259Z,1.90
2018-05-02T03:44:25.369Z,1.83
2018-05-02T03:46:52.861Z,2.07
2018-05-02T03:49:20.498Z,1.80
2018-05-02T03:51:47.999Z,2.07
2018-05-02T03:54:15.646Z,1.83
2018-05-02T03:56:43.134Z,1.70
2018-05-02T03:59:10.693Z,1.90
2018-05-02T04:01:50.069Z,1.70
2018-05-02T04:04:29.641Z,2.10
2018-05-02T04:07:14.874Z,1.80
2018-05-02T04:09:43.194Z,1.83
2018-05-02T04:12:12.301Z,2.70
2018-05-02T04:14:39.798Z,1.97
2018-05-02T04:17:08.060Z,1.80
2018-05-02T04:19:35.869Z,1.90
2018-05-02T04:22:03.859Z,2.80
2018-05-02T04:24:31.417Z,1.50
2018-05-02T04:26:58.928Z,1.80
2018-05-02T04:29:27.139Z,2.80
2018-05-02T04:31:54.981Z,1.87
2018-05-02T04:34:22.836Z,1.90
2018-05-02T04:36:50.327Z,1.70
2018-05-02T04:39:18.178Z,2.10
2018-05-02T04:41:45.675Z,1.70
2018-05-02T04:44:13.183Z,2.77
2018-05-02T04:46:41.545Z,1.87
2018-05-02T04:49:09.258Z,1.93
2018-05-02T04:51:36.755Z,3.00
2018-05-02T04:54:04.241Z,1.80
2018-05-02T04:56:32.209Z,1.80
2018-05-02T04:59:00.851Z,2.07
2018-05-02T05:01:28.324Z,1.83
2018-05-02T05:03:55.812Z,1.90
2018-05-02T05:06:23.404Z,2.67
2018-05-02T05:08:50.961Z,1.80
2018-05-02T05:11:18.539Z,1.90
2018-05-02T05:13:46.289Z,2.63
2018-05-02T05:16:13.896Z,1.83
2018-05-02T05:18:42.926Z,1.80
2018-05-02T05:21:11.397Z,1.90
2018-05-02T05:23:38.949Z,1.83
2018-05-02T05:26:06.817Z,1.83
2018-05-02T05:28:34.502Z,2.50
2018-05-02T05:31:01.983Z,2.00
2018-05-02T05:33:29.833Z,1.80
2018-05-02T05:35:57.320Z,1.80
2018-05-02T05:38:24.950Z,1.80
2018-05-02T05:40:52.439Z,1.60
2018-05-02T05:43:20.528Z,1.80
2018-05-02T05:45:48.732Z,1.70
2018-05-02T05:48:16.230Z,1.70
2018-05-02T05:50:43.720Z,2.17
2018-05-02T05:53:11.211Z,1.73
2018-05-02T05:55:38.718Z,1.70
2018-05-02T05:58:06.212Z,1.80
2018-05-02T06:00:34.487Z,1.70
2018-05-02T06:03:02.269Z,1.60
2018-05-02T06:05:29.939Z,1.80
2018-05-02T06:07:57.427Z,1.43
2018-05-02T06:10:24.952Z,1.67
2018-05-02T06:12:52.442Z,1.70
2018-05-02T06:15:20.047Z,2.03
2018-05-02T06:17:47.543Z,1.70
2018-05-02T06:20:15.354Z,1.70
2018-05-02T06:22:42.863Z,1.77
2018-05-02T06:25:10.913Z,1.73
2018-05-02T06:27:39.547Z,1.63
2018-05-02T06:30:07.038Z,1.70
2018-05-02T06:32:35.320Z,1.80
2018-05-02T06:35:02.817Z,1.80
2018-05-02T06:37:30.643Z,1.57
2018-05-02T06:39:58.129Z,1.50
2018-05-02T06:42:25.773Z,1.70
2018-05-02T06:44:54.052Z,1.70
2018-05-02T06:47:21.635Z,1.57
2018-05-02T06:49:49.178Z,1.80
2018-05-02T06:52:16.687Z,1.80
2018-05-02T06:54:44.341Z,1.63
2018-05-02T06:57:12.555Z,1.70
2018-05-02T06:59:40.081Z,1.80
2018-05-02T07:02:07.593Z,1.43
2018-05-02T07:04:35.352Z,1.60
2018-05-02T07:07:02.845Z,1.60
2018-05-02T07:09:30.348Z,1.40
2018-05-02T07:11:59.540Z,1.50
2018-05-02T07:14:27.826Z,1.70
2018-05-02T07:16:55.833Z,1.63
2018-05-02T07:19:24.700Z,1.50
2018-05-02T07:21:53.473Z,1.47
2018-05-02T07:24:20.981Z,1.70
2018-05-02T07:26:48.480Z,1.70
2018-05-02T07:29:16.204Z,1.80
2018-05-02T07:31:44.733Z,1.70
2018-05-02T07:34:12.213Z,1.60
2018-05-02T07:36:40.282Z,1.70
2018-05-02T07:39:07.810Z,1.63
2018-05-02T07:41:35.338Z,1.80
2018-05-02T07:44:03.042Z,1.77
2018-05-02T07:46:30.929Z,1.60
2018-05-02T07:48:58.447Z,1.90
2018-05-02T07:51:26.727Z,1.80
2018-05-02T07:53:54.278Z,1.80
2018-05-02T07:56:21.881Z,2.17
2018-05-02T07:58:49.323Z,2.00
2018-05-02T08:01:16.822Z,2.20
2018-05-02T08:03:44.884Z,2.13
2018-05-02T08:06:12.507Z,2.20
2018-05-02T08:08:40.484Z,2.50
2018-05-02T08:11:08.080Z,2.77
2018-05-02T08:13:36.034Z,2.77
2018-05-02T08:16:03.560Z,2.40
2018-05-02T08:18:32.140Z,2.40
2018-05-02T08:21:00.518Z,2.50
2018-05-02T08:23:29.945Z,2.20
2018-05-02T08:25:57.627Z,3.23
2018-05-02T08:28:25.417Z,2.70
2018-05-02T08:30:53.095Z,2.30
2018-05-02T08:33:20.827Z,2.60
2018-05-02T08:35:48.323Z,2.63
2018-05-02T08:38:16.076Z,2.30
2018-05-02T08:40:44.352Z,2.27
2018-05-02T08:43:12.062Z,2.40
2018-05-02T08:45:39.558Z,2.47
2018-05-02T08:48:07.052Z,2.17
2018-05-02T08:50:34.552Z,2.60
2018-05-02T08:53:02.084Z,2.57
2018-05-02T08:55:30.096Z,2.43
2018-05-02T08:57:57.688Z,2.83
2018-05-02T09:00:25.183Z,2.40
2018-05-02T09:02:52.676Z,2.70
2018-05-02T09:05:20.200Z,2.60
2018-05-02T09:07:47.724Z,2.53
2018-05-02T09:10:16.317Z,2.37
2018-05-02T09:12:44.581Z,2.60
2018-05-02T09:15:13.072Z,2.63
2018-05-02T09:17:40.929Z,2.50
2018-05-02T09:20:09.037Z,2.47
2018-05-02T09:22:36.536Z,2.40
2018-05-02T09:25:05.372Z,2.30
2018-05-02T09:27:32.987Z,2.50
2018-05-02T09:30:00.484Z,2.70
2018-05-02T09:32:28.138Z,2.70
2018-05-02T09:34:55.665Z,2.90
2018-05-02T09:37:24.076Z,2.73
2018-05-02T09:39:51.576Z,2.70
2018-05-02T09:42:19.352Z,2.67
2018-05-02T09:44:47.158Z,3.10
2018-05-02T09:47:14.843Z,2.80
2018-05-02T09:49:43.407Z,2.90
2018-05-02T09:52:11.418Z,2.63
2018-05-02T09:54:38.932Z,2.70
2018-05-02T09:57:06.520Z,2.67
2018-05-02T09:59:34.204Z,2.97
2018-05-02T10:02:01.697Z,3.03
2018-05-02T10:04:29.212Z,3.00
2018-05-02T10:06:56.693Z,2.87
2018-05-02T10:09:24.429Z,2.60
2018-05-02T10:11:51.949Z,2.77
2018-05-02T10:14:20.531Z,2.67
2018-05-02T10:16:48.041Z,3.00
2018-05-02T10:19:15.573Z,2.90
2018-05-02T10:21:43.618Z,2.87
2018-05-02T10:24:11.961Z,3.20
2018-05-02T10:26:39.684Z,3.20
2018-05-02T10:29:07.180Z,3.00
2018-05-02T10:31:34.665Z,3.50
2018-05-02T10:34:03.800Z,3.30
2018-05-02T10:36:32.789Z,3.30
2018-05-02T10:39:00.348Z,3.50
2018-05-02T10:41:27.844Z,3.10
2018-05-02T10:43:55.324Z,3.50
2018-05-02T10:46:24.244Z,3.50
2018-05-02T10:48:52.026Z,3.30
2018-05-02T10:51:19.828Z,3.60
2018-05-02T10:53:47.478Z,3.43
2018-05-02T10:56:15.013Z,3.90
2018-05-02T10:58:42.661Z,3.90
2018-05-02T11:01:10.182Z,3.60
2018-05-02T11:03:37.984Z,3.27
2018-05-02T11:06:05.830Z,4.10
2018-05-02T11:08:34.440Z,3.33
2018-05-02T11:11:01.973Z,3.67
2018-05-02T11:13:30.314Z,3.57
2018-05-02T11:15:58.116Z,3.57
2018-05-02T11:18:25.617Z,3.37
2018-05-02T11:20:54.820Z,4.07
2018-05-02T11:23:22.297Z,4.10
2018-05-02T11:25:50.018Z,3.50
2018-05-02T11:28:17.562Z,3.77
2018-05-02T11:30:45.345Z,3.87
2018-05-02T11:33:12.876Z,3.70
2018-05-02T11:35:41.696Z,3.67
2018-05-02T11:38:09.307Z,3.70
2018-05-02T11:40:37.645Z,3.73
2018-05-02T11:43:05.267Z,3.90
2018-05-02T11:45:33.593Z,3.40
2018-05-02T11:48:02.213Z,3.00
2018-05-02T11:50:29.909Z,2.93
2018-05-02T11:52:58.577Z,2.93
2018-05-02T11:55:26.150Z,2.60
2018-05-02T11:57:53.758Z,3.57
2018-05-02T12:00:21.307Z,3.20
2018-05-02T12:02:48.862Z,2.90
2018-05-02T12:05:16.405Z,3.27
2018-05-02T12:07:43.896Z,3.17
2018-05-02T12:10:11.385Z,3.33
2018-05-02T12:12:38.962Z,2.83
2018-05-02T12:15:06.705Z,2.90
2018-05-02T12:17:34.585Z,3.10
2018-05-02T12:20:02.258Z,2.77
2018-05-02T12:22:30.123Z,3.20
2018-05-02T12:24:58.806Z,3.07
2018-05-02T12:27:26.399Z,2.73
2018-05-02T12:29:53.930Z,3.03
2018-05-02T12:32:21.421Z,3.20
2018-05-02T12:34:49.526Z,2.70
2018-05-02T12:37:17.223Z,3.23
2018-05-02T12:39:45.841Z,2.90
2018-05-02T12:42:13.984Z,3.10
2018-05-02T12:44:41.475Z,2.73
2018-05-02T12:47:09.006Z,3.43
2018-05-02T12:49:37.793Z,2.90
2018-05-02T12:52:05.356Z,2.93
2018-05-02T12:54:33.044Z,2.67
2018-05-02T12:57:00.578Z,2.80
2018-05-02T12:59:28.215Z,3.20
2018-05-02T13:02:05.548Z,2.90
2018-05-02T13:07:52.286Z,2.97
2018-05-02T13:10:20.466Z,2.70
2018-05-02T13:13:04.503Z,3.10
2018-05-02T13:15:43.360Z,2.77
2018-05-02T13:18:40.856Z,3.07
2018-05-02T13:27:37.337Z,2.63
2018-05-02T13:30:24.765Z,2.33
2018-05-02T13:32:52.862Z,2.77
2018-05-02T13:38:34.706Z,2.40
2018-05-02T13:41:02.286Z,2.60
2018-05-02T13:43:29.871Z,2.40
2018-05-02T13:45:58.890Z,2.67
2018-05-02T13:48:26.814Z,2.50
2018-05-02T13:50:54.391Z,2.67
2018-05-02T13:53:24.240Z,2.30
2018-05-02T13:55:54.479Z,2.40
2018-05-02T13:58:22.202Z,2.20
2018-05-02T14:00:50.669Z,2.47
2018-05-02T14:03:18.167Z,2.90
2018-05-02T14:05:45.684Z,2.50
2018-05-02T14:08:13.184Z,2.60
2018-05-02T14:10:41.653Z,2.27
2018-05-02T14:13:09.321Z,2.20
2018-05-02T14:15:36.849Z,2.40
2018-05-02T14:18:05.673Z,2.40
2018-05-02T14:20:33.289Z,2.60
2018-05-02T14:23:00.809Z,2.33
2018-05-02T14:25:28.676Z,2.57
2018-05-02T14:27:56.325Z,2.20
2018-05-02T14:30:24.952Z,2.10
2018-05-02T14:32:53.290Z,2.20
2018-05-02T14:35:20.731Z,2.30
2018-05-02T14:37:48.711Z,2.30
2018-05-02T14:40:16.233Z,2.33
2018-05-02T14:42:44.493Z,2.40
2018-05-02T14:45:12.493Z,2.53
2018-05-02T14:47:40.356Z,2.90
2018-05-02T14:50:07.875Z,2.60
2018-05-02T14:52:35.496Z,2.20
2018-05-02T14:55:02.999Z,2.70
2018-05-02T14:57:30.543Z,2.50
2018-05-02T14:59:58.039Z,2.77
2018-05-02T15:02:25.801Z,2.73
2018-05-02T15:04:55.439Z,3.10
2018-05-02T15:07:24.661Z,2.87
2018-05-02T15:09:52.250Z,3.10
2018-05-02T15:12:20.009Z,2.67
2018-05-02T15:14:47.594Z,3.00
2018-05-02T15:17:15.515Z,3.50
2018-05-02T15:19:43.046Z,3.00
2018-05-02T15:22:11.115Z,3.13
2018-05-02T15:24:38.669Z,2.90
2018-05-02T15:27:06.333Z,16.00
2018-05-02T15:29:33.860Z,9.10
2018-05-02T15:32:01.440Z,8.10
2018-05-02T15:34:28.877Z,3.90
2018-05-02T15:36:56.805Z,3.30
2018-05-02T15:39:24.621Z,3.70
2018-05-02T15:41:52.219Z,5.60
2018-05-02T15:44:20.289Z,3.80
2018-05-02T15:46:47.831Z,7.10
2018-05-02T15:49:15.560Z,3.60
2018-05-02T15:51:45.097Z,3.90
2018-05-02T15:54:13.087Z,3.67
2018-05-02T15:56:40.945Z,3.40
2018-05-02T15:59:09.085Z,3.97
2018-05-02T16:01:37.622Z,3.17
2018-05-02T16:04:05.126Z,3.77
2018-05-02T16:06:33.743Z,3.60
2018-05-02T16:09:01.799Z,3.27
2018-05-02T16:11:29.345Z,3.20
2018-05-02T16:13:58.720Z,2.90
2018-05-02T16:16:26.354Z,3.10
2018-05-02T16:18:55.287Z,2.70
2018-05-02T16:21:22.796Z,2.83
2018-05-02T16:23:50.313Z,2.63
2018-05-02T16:26:18.938Z,3.20
2018-05-02T16:28:46.691Z,2.70
2018-05-02T16:44:18.588Z,2.80
2018-05-02T16:46:50.158Z,2.20
2018-05-02T16:49:26.858Z,2.60
2018-05-02T16:51:55.510Z,2.43
2018-05-02T16:54:24.731Z,2.67
2018-05-02T16:56:56.487Z,2.80
2018-05-02T16:59:29.221Z,2.77
2018-05-02T17:01:58.937Z,3.37
2018-05-02T17:04:26.581Z,3.87
2018-05-02T17:07:04.711Z,2.70
2018-05-02T17:10:03.378Z,3.13
2018-05-02T17:12:31.474Z,3.20
2018-05-02T17:15:09.805Z,3.03
2018-05-02T17:17:38.024Z,3.47
2018-05-02T17:20:06.797Z,3.03
2018-05-02T17:25:42.437Z,2.50
2018-05-02T17:28:10.072Z,2.60
2018-05-02T17:30:38.882Z,2.77
2018-05-02T17:33:06.508Z,2.70
2018-05-02T17:35:34.304Z,3.37
2018-05-02T17:38:01.813Z,2.80
2018-05-02T17:40:29.391Z,2.70
2018-05-02T17:42:57.227Z,2.50
2018-05-02T17:45:24.720Z,2.90
2018-05-02T17:47:52.977Z,2.93
2018-05-02T17:50:21.110Z,2.87
2018-05-02T17:52:48.615Z,2.83
2018-05-02T17:55:16.340Z,6.60
2018-05-02T17:57:43.840Z,2.97
2018-05-02T18:00:11.765Z,2.60
2018-05-02T18:02:39.798Z,2.97
2018-05-02T18:05:07.641Z,3.00
2018-05-02T18:07:35.150Z,4.00
2018-05-02T18:10:02.782Z,2.83
2018-05-02T18:12:30.673Z,3.00
2018-05-02T18:14:58.195Z,3.10
2018-05-02T18:17:26.486Z,4.00
2018-05-02T18:19:54.310Z,3.10
2018-05-02T18:22:24.004Z,4.03
2018-05-02T18:24:52.043Z,2.83
2018-05-02T18:27:21.284Z,2.60
2018-05-02T18:29:48.873Z,2.97
2018-05-02T18:32:16.630Z,4.20
2018-05-02T18:34:45.884Z,2.80
2018-05-02T18:37:15.124Z,4.00
2018-05-02T18:39:42.789Z,3.30
2018-05-02T18:42:10.710Z,2.87
2018-05-02T18:44:38.337Z,2.70
2018-05-02T18:47:06.483Z,3.97
2018-05-02T18:49:34.211Z,3.00
2018-05-02T18:52:02.487Z,3.70
2018-05-02T18:54:30.787Z,3.40
2018-05-02T18:56:58.290Z,3.20
2018-05-02T18:59:26.727Z,2.80
2018-05-02T19:01:54.458Z,3.30
2018-05-02T19:04:23.056Z,3.10
2018-05-02T19:06:50.556Z,3.00
2018-05-02T19:09:18.778Z,2.70
2018-05-02T19:11:49.249Z,2.80
2018-05-02T19:14:17.343Z,3.10
2018-05-02T19:16:46.819Z,2.77
2018-05-02T19:19:21.775Z,3.23
2018-05-02T19:21:49.967Z,3.17
2018-05-02T19:24:19.029Z,3.07
2018-05-02T19:26:49.184Z,4.40
2018-05-02T19:29:17.108Z,3.53
2018-05-02T19:31:50.489Z,3.17
2018-05-02T19:34:18.709Z,3.37
2018-05-02T19:36:46.493Z,3.20
2018-05-02T19:39:14.037Z,4.70
2018-05-02T19:41:50.243Z,3.57
2018-05-02T19:44:18.464Z,4.97
2018-05-02T19:46:46.849Z,3.23
2018-05-02T19:49:14.770Z,3.50
2018-05-02T19:51:48.216Z,3.70
2018-05-02T19:54:16.361Z,5.13
2018-05-02T19:56:43.939Z,3.83
2018-05-02T19:59:12.171Z,4.00
2018-05-02T20:01:46.646Z,3.83
2018-05-02T20:04:14.922Z,5.93
2018-05-02T20:06:42.448Z,4.60
2018-05-02T20:09:16.352Z,6.70
2018-05-02T20:11:50.098Z,4.63
2018-05-02T20:14:17.821Z,6.80
2018-05-02T20:16:45.409Z,4.80
2018-05-02T20:19:12.977Z,4.50
2018-05-02T20:21:40.731Z,6.37
2018-05-02T20:24:08.244Z,4.67
2018-05-02T20:26:35.997Z,4.90
2018-05-02T20:29:03.499Z,6.63
2018-05-02T20:31:31.028Z,4.50
2018-05-02T20:33:58.823Z,4.57
2018-05-02T20:36:26.654Z,6.60
2018-05-02T20:38:54.156Z,4.50
2018-05-02T20:41:22.237Z,4.60
2018-05-02T20:43:49.901Z,4.57
2018-05-02T20:46:17.718Z,7.50
2018-05-02T20:48:47.214Z,4.80
2018-05-02T20:51:15.640Z,5.00
2018-05-02T20:53:44.039Z,5.13
2018-05-02T20:56:12.041Z,5.47
2018-05-02T20:58:39.741Z,5.47
2018-05-02T21:01:08.928Z,5.60
2018-05-02T21:03:36.898Z,7.90
2018-05-02T21:06:05.298Z,5.23
2018-05-02T21:08:33.832Z,6.17
